زابل, Afghanistan

09:32 AM +0430 on آوریل 27, 2017 (GMT +0430)
Zabol | | Change Station

Elev 1627 ft 31.10 °N, 61.54 °E | Updated 1 hour ago

صاف
صاف
61 °F
Feels Like 61 °F
N
31
باد متغير باد from NNW
Gusts 47 mph

امروز
High -- | Low -- °F
--% Chance of Precip.
دیروز
High -- | Low -- °F
Precip. -- در
فشار 30.09 در
ديد 1.2 مايل، ميل (در برابر كيلومتر
ابری
قطره شبنم 43 °F
رطوبت 52%
بارش باران 0.00 در
برف عمیق Not available.
5:41 AM 7:00 PM
ماه جدید, 1% visible
METAR OIZB 270400Z 33027G41KT 2000 0500E SA NSC 16/06 Q1019
فشار 30.09 در
ديد 1.2 مايل، ميل (در برابر كيلومتر
ابری
قطره شبنم 43 °F
رطوبت 52%
بارش باران 0.00 در
برف عمیق Not available.
5:41 AM 7:00 PM
ماه جدید, 1% visible
METAR OIZB 270400Z 33027G41KT 2000 0500E SA NSC 16/06 Q1019

Get Severe Weather Alerts

Thanks for signing up!

Be on the lookout for a verification email in your inbox.

You'll start receiving the daily forecast at 8 AM.

×

10-Day Weather Forecast

No radar image for this location.
×

Almanac

ستاره شناسی

Apr. 27, 2017 Rise Set
وقت حقیقی
تاریک و روشن اجتماعی
تاریک روشن دریایی
شفق و فلق نجومی
ماه
میزان روشنایی روز
طول روز
Tomorrow will be .
, % of the Moon is Illuminated

Today's Extremes

Country Highs Country Lows

Community

WunderPhotos

WunderBlog® & News

Nearby

تمیزی هوا

  تمیزی هوا AQ Index آلاینده
Not available.

عمق برف

Station Depth Elevation

Earthquake Activity

شهر Distance Mag. Time & Date
Minimum magnitude displayed is 2.5.

Coastal Water Temperatures

منطقه درجه حرارت

Stations

Nearby Weather Stations

Station Location دما باد سرد قطره شبنم رطوبت باد Precip. Elev ارتقا دادن Type